Time;durP1;ratioP1;P1;durP2;ratioP2;P2;SDS_P1;SDS_P2;PMS_P1;PMS_P2;Temp;Humidity;BMP_temperature;BMP_pressure;BME280_temperature;BME280_humidity;BME280_pressure;Samples;Min_cycle;Max_cycle;Signal;HPM_P1;HPM_P2
2022/03/30 00:02:09;;;;;;;29.60;15.13;;;14.00;58.10;;;;;;4986862;28;20810;-76
2022/03/30 00:04:38;;;;;;;30.23;15.20;;;14.00;57.90;;;;;;4986631;28;20208;-76
2022/03/30 00:07:07;;;;;;;30.77;15.57;;;14.00;57.80;;;;;;4983102;28;20685;-76
2022/03/30 00:09:35;;;;;;;30.03;14.53;;;14.00;58.40;;;;;;4987235;28;20201;-77
2022/03/30 00:12:04;;;;;;;30.03;15.20;;;14.00;57.90;;;;;;4987903;28;20201;-75
2022/03/30 00:14:37;;;;;;;27.70;13.93;;;13.90;57.70;;;;;;4952067;28;20200;-75
2022/03/30 00:17:06;;;;;;;27.33;14.47;;;13.90;58.40;;;;;;4986889;28;20193;-77
2022/03/30 00:19:34;;;;;;;26.53;14.07;;;13.90;57.70;;;;;;4985299;28;20287;-76
2022/03/30 00:22:03;;;;;;;27.17;13.67;;;13.90;57.70;;;;;;4986854;28;20266;-76
2022/03/30 00:24:31;;;;;;;23.83;13.53;;;13.90;57.70;;;;;;4986438;28;20205;-76
2022/03/30 00:27:00;;;;;;;23.23;13.20;;;13.80;57.70;;;;;;4985260;28;20193;-75
2022/03/30 00:29:28;;;;;;;24.03;13.00;;;13.80;57.90;;;;;;4983317;28;20197;-76
2022/03/30 00:31:58;;;;;;;22.47;13.03;;;13.80;57.90;;;;;;4984591;28;20208;-76
2022/03/30 00:34:26;;;;;;;33.47;13.83;;;13.80;57.90;;;;;;4984883;28;20262;-76
2022/03/30 00:36:55;;;;;;;26.53;14.17;;;13.70;57.90;;;;;;4985269;28;20234;-76
2022/03/30 00:39:23;;;;;;;24.03;13.30;;;13.70;57.90;;;;;;4984105;28;20212;-76
2022/03/30 00:41:52;;;;;;;27.60;14.75;;;13.70;57.90;;;;;;4986064;28;21217;-75
2022/03/30 00:44:20;;;;;;;33.17;13.37;;;13.70;58.00;;;;;;4986686;28;20189;-75
2022/03/30 00:46:51;;;;;;;24.77;13.67;;;13.70;58.10;;;;;;4987276;28;20196;-76
2022/03/30 00:49:21;;;;;;;24.03;13.27;;;13.60;58.20;;;;;;4985516;28;20205;-76
2022/03/30 00:51:50;;;;;;;27.83;13.53;;;13.60;58.30;;;;;;4986467;28;20226;-76
2022/03/30 00:54:18;;;;;;;26.53;13.70;;;13.60;58.40;;;;;;4986335;28;20561;-76
2022/03/30 00:56:47;;;;;;;28.80;14.80;;;13.50;58.30;;;;;;4981822;28;20216;-75
2022/03/30 00:59:15;;;;;;;24.90;13.03;;;13.50;58.50;;;;;;4984736;28;20209;-76
2022/03/30 01:01:44;;;;;;;24.40;13.53;;;13.50;58.60;;;;;;4966035;28;20662;-75
2022/03/30 01:04:13;;;;;;;25.03;13.87;;;13.40;58.70;;;;;;4985449;28;20670;-75
2022/03/30 01:06:42;;;;;;;23.63;13.10;;;13.40;58.70;;;;;;4985305;28;20207;-75
2022/03/30 01:09:11;;;;;;;24.10;14.33;;;13.30;58.60;;;;;;4983562;28;20208;-76
2022/03/30 01:11:39;;;;;;;26.97;13.03;;;13.30;58.90;;;;;;4983855;28;20247;-75
2022/03/30 01:14:08;;;;;;;29.63;13.67;;;13.30;58.80;;;;;;4983797;28;20197;-75
2022/03/30 01:16:36;;;;;;;24.10;13.27;;;13.20;59.10;;;;;;4982984;28;20224;-76
2022/03/30 01:19:06;;;;;;;25.33;12.90;;;13.20;59.20;;;;;;4984728;28;20201;-77
2022/03/30 01:21:37;;;;;;;26.77;13.80;;;13.10;59.20;;;;;;4984005;28;20223;-76
2022/03/30 01:24:06;;;;;;;27.27;14.60;;;13.10;59.20;;;;;;4984036;28;20212;-76
2022/03/30 01:26:34;;;;;;;29.73;14.23;;;13.00;59.30;;;;;;4981979;28;20210;-77
2022/03/30 01:32:24;;;;;;;25.53;14.00;;;13.00;59.30;;;;;;4984458;28;20196;-77
2022/03/30 01:34:42;;;;;;;24.47;13.80;;;12.90;59.50;;;;;;4984891;28;20193;-76
2022/03/30 01:37:14;;;;;;;29.13;14.30;;;12.90;59.70;;;;;;4986184;28;20902;-76
2022/03/30 01:39:42;;;;;;;26.30;12.97;;;12.80;59.70;;;;;;4979993;28;20204;-75
2022/03/30 01:42:11;;;;;;;26.77;13.77;;;12.80;59.80;;;;;;4983316;28;20205;-75
2022/03/30 01:44:40;;;;;;;26.23;14.03;;;12.70;59.90;;;;;;4985189;28;20231;-75
2022/03/30 01:47:10;;;;;;;30.23;14.27;;;12.70;59.90;;;;;;4984797;28;20185;-77
2022/03/30 01:49:38;;;;;;;30.47;13.73;;;12.70;60.10;;;;;;4983684;28;20646;-75
2022/03/30 01:52:08;;;;;;;22.37;13.53;;;12.60;60.60;;;;;;4984851;28;20204;-77
2022/03/30 01:54:41;;;;;;;27.73;13.90;;;12.60;60.70;;;;;;4981470;28;20197;-77
2022/03/30 01:57:12;;;;;;;24.13;13.27;;;12.50;60.80;;;;;;4984371;28;20205;-76
2022/03/30 01:59:41;;;;;;;24.50;13.40;;;12.50;60.70;;;;;;4985648;28;20201;-76
2022/03/30 02:02:11;;;;;;;22.13;12.93;;;12.50;60.70;;;;;;4983168;28;20481;-76
2022/03/30 02:04:40;;;;;;;28.13;14.27;;;12.40;60.70;;;;;;4983770;28;20445;-75
2022/03/30 02:07:10;;;;;;;26.53;13.37;;;12.40;61.30;;;;;;4985993;28;20623;-76
2022/03/30 02:09:40;;;;;;;27.07;13.13;;;12.30;61.30;;;;;;4983503;28;20205;-76
2022/03/30 02:12:10;;;;;;;24.67;13.40;;;12.30;61.40;;;;;;4983657;28;20208;-78
2022/03/30 02:14:38;;;;;;;24.60;13.33;;;12.30;61.40;;;;;;4984126;28;20200;-76
2022/03/30 02:17:07;;;;;;;21.73;13.13;;;12.20;61.90;;;;;;4983822;28;20798;-77
2022/03/30 02:19:35;;;;;;;23.27;13.13;;;12.20;61.60;;;;;;4986583;28;20204;-75
2022/03/30 02:22:04;;;;;;;25.47;13.87;;;12.10;61.70;;;;;;4984084;28;20228;-75
2022/03/30 02:24:32;;;;;;;28.03;14.20;;;12.10;61.70;;;;;;4981166;28;20209;-75
2022/03/30 02:27:02;;;;;;;26.30;13.70;;;12.10;61.80;;;;;;4983320;28;20685;-75
2022/03/30 02:29:30;;;;;;;22.90;13.40;;;12.10;62.10;;;;;;4981323;28;20787;-75
2022/03/30 02:31:59;;;;;;;21.33;13.73;;;12.00;61.90;;;;;;4984534;28;20251;-76
2022/03/30 02:34:28;;;;;;;26.50;12.23;;;12.00;62.10;;;;;;4985551;28;20604;-76
2022/03/30 02:36:56;;;;;;;31.17;14.23;;;11.90;62.00;;;;;;4984816;28;20212;-76
2022/03/30 02:39:25;;;;;;;27.13;13.77;;;11.90;62.10;;;;;;4983230;28;20205;-77
2022/03/30 02:41:55;;;;;;;26.53;13.77;;;11.90;62.10;;;;;;4983392;28;20197;-75
2022/03/30 02:44:25;;;;;;;26.90;14.50;;;11.90;62.10;;;;;;4987002;28;20201;-75
2022/03/30 02:46:53;;;;;;;26.93;13.83;;;11.80;62.30;;;;;;4985857;28;20198;-76
2022/03/30 02:49:22;;;;;;;26.53;14.17;;;11.80;62.50;;;;;;4989703;28;20209;-75
2022/03/30 02:51:50;;;;;;;26.20;13.70;;;11.80;62.50;;;;;;4985115;28;20196;-76
2022/03/30 02:54:19;;;;;;;25.03;13.90;;;11.70;62.70;;;;;;4986913;28;20789;-76
2022/03/30 02:56:47;;;;;;;28.60;13.90;;;11.70;62.60;;;;;;4986235;28;20690;-75
2022/03/30 02:59:16;;;;;;;29.10;14.07;;;11.60;62.80;;;;;;4987160;28;20204;-75
2022/03/30 03:01:45;;;;;;;28.40;13.43;;;11.60;63.00;;;;;;4986608;28;20192;-75
2022/03/30 03:04:14;;;;;;;28.40;14.90;;;11.60;63.00;;;;;;4985851;28;20208;-75
2022/03/30 03:06:42;;;;;;;26.23;14.00;;;11.50;63.30;;;;;;4986058;28;20215;-75
2022/03/30 03:09:11;;;;;;;28.20;14.07;;;11.50;63.40;;;;;;4987499;28;20198;-77
2022/03/30 03:11:39;;;;;;;30.97;14.97;;;11.50;63.60;;;;;;4985934;28;20626;-76
2022/03/30 03:14:09;;;;;;;23.53;14.07;;;11.40;64.00;;;;;;4985941;28;20200;-75
2022/03/30 03:16:37;;;;;;;28.60;14.23;;;11.30;64.30;;;;;;4985567;28;20221;-75
2022/03/30 03:19:07;;;;;;;30.00;13.37;;;11.30;64.30;;;;;;4988377;28;20204;-75
2022/03/30 03:21:35;;;;;;;33.03;14.47;;;11.30;64.10;;;;;;4986779;28;20236;-75
2022/03/30 03:24:04;;;;;;;31.20;15.20;;;11.20;64.50;;;;;;4987560;28;20212;-75
2022/03/30 03:26:32;;;;;;;25.40;14.57;;;11.20;64.50;;;;;;4985000;28;20201;-75
2022/03/30 03:29:02;;;;;;;30.00;14.00;;;11.20;64.40;;;;;;4983775;28;20635;-76
2022/03/30 03:31:30;;;;;;;26.30;14.33;;;11.20;64.90;;;;;;4988666;28;20201;-76
2022/03/30 03:33:58;;;;;;;24.30;13.50;;;11.10;64.60;;;;;;4988692;28;20243;-76
2022/03/30 03:36:28;;;;;;;30.57;14.90;;;11.10;64.60;;;;;;4985397;28;20209;-75
2022/03/30 03:38:56;;;;;;;28.67;14.50;;;11.00;64.70;;;;;;4984599;28;20231;-75
2022/03/30 03:41:25;;;;;;;25.93;14.73;;;11.00;64.80;;;;;;4987072;28;20698;-75
2022/03/30 03:43:53;;;;;;;27.93;14.90;;;11.00;64.90;;;;;;4984578;28;20625;-77
2022/03/30 03:46:22;;;;;;;27.10;14.60;;;11.00;64.70;;;;;;4986992;28;20209;-76
2022/03/30 03:48:53;;;;;;;29.90;14.27;;;11.00;64.90;;;;;;4986576;28;20311;-76
2022/03/30 03:51:22;;;;;;;34.33;15.60;;;10.90;64.90;;;;;;4987618;28;20205;-77
2022/03/30 03:53:51;;;;;;;28.30;14.60;;;10.90;65.00;;;;;;4984689;28;20204;-76
2022/03/30 03:56:20;;;;;;;29.87;14.90;;;10.90;65.00;;;;;;4985539;28;20197;-76
2022/03/30 03:58:49;;;;;;;28.70;15.87;;;10.90;65.60;;;;;;4986172;28;20400;-76
2022/03/30 04:01:17;;;;;;;30.10;15.70;;;10.90;65.00;;;;;;4983773;28;20295;-76
2022/03/30 04:03:46;;;;;;;28.73;15.57;;;10.80;65.20;;;;;;4986704;28;20234;-76
2022/03/30 04:06:14;;;;;;;31.27;15.43;;;10.80;65.00;;;;;;4987729;28;20220;-75
2022/03/30 04:08:42;;;;;;;35.50;16.43;;;10.80;65.10;;;;;;4985352;28;20721;-75
2022/03/30 04:11:13;;;;;;;32.87;14.50;;;10.80;65.00;;;;;;4985927;28;20851;-75
2022/03/30 04:13:42;;;;;;;29.33;15.40;;;10.70;64.80;;;;;;4987408;28;20320;-75
2022/03/30 04:16:10;;;;;;;31.03;14.67;;;10.70;65.10;;;;;;4985001;28;20211;-76
2022/03/30 04:18:39;;;;;;;30.27;14.83;;;10.70;65.20;;;;;;4986574;28;20226;-76
2022/03/30 04:21:07;;;;;;;31.97;16.20;;;10.60;65.10;;;;;;4988568;28;20227;-76
2022/03/30 04:23:36;;;;;;;29.60;15.57;;;10.60;65.10;;;;;;4986746;28;20212;-77
2022/03/30 04:26:04;;;;;;;34.40;16.63;;;10.60;65.20;;;;;;4984317;28;20207;-77
2022/03/30 04:28:40;;;;;;;30.27;15.40;;;10.60;65.20;;;;;;4982814;28;20219;-76
2022/03/30 04:31:08;;;;;;;31.40;16.40;;;10.60;65.40;;;;;;4984367;28;20203;-76
2022/03/30 04:33:38;;;;;;;37.40;17.30;;;10.60;65.40;;;;;;4984961;28;20235;-76
2022/03/30 04:36:07;;;;;;;30.43;16.67;;;10.60;65.70;;;;;;4983754;28;20209;-77
2022/03/30 04:38:35;;;;;;;29.57;16.80;;;10.60;65.60;;;;;;4987331;28;20220;-76
2022/03/30 04:41:04;;;;;;;28.00;15.43;;;10.60;65.50;;;;;;4983762;28;20209;-75
2022/03/30 04:43:34;;;;;;;27.83;16.40;;;10.60;65.50;;;;;;4984495;28;20662;-76
2022/03/30 04:46:02;;;;;;;31.80;15.93;;;10.50;66.30;;;;;;4984642;28;20697;-76
2022/03/30 04:48:30;;;;;;;32.87;15.50;;;10.50;65.50;;;;;;4986329;28;20203;-75
2022/03/30 04:50:59;;;;;;;32.23;16.17;;;10.50;65.40;;;;;;4986935;28;20209;-76
2022/03/30 04:53:28;;;;;;;32.90;15.50;;;10.60;65.50;;;;;;4987523;28;20207;-75
2022/03/30 04:55:56;;;;;;;27.87;15.20;;;10.50;65.80;;;;;;4983872;28;20199;-75
2022/03/30 04:58:24;;;;;;;35.03;16.43;;;10.60;65.70;;;;;;4986765;28;20231;-75
2022/03/30 05:00:54;;;;;;;32.10;15.00;;;10.60;65.80;;;;;;4986362;28;20224;-76
2022/03/30 05:03:23;;;;;;;32.10;15.40;;;10.60;65.80;;;;;;4983474;28;21821;-75
2022/03/30 05:05:51;;;;;;;32.67;15.03;;;10.70;65.90;;;;;;4986750;28;20549;-75
2022/03/30 05:08:20;;;;;;;30.00;14.10;;;10.70;65.60;;;;;;4986074;28;20319;-76
2022/03/30 05:10:48;;;;;;;38.20;15.27;;;10.80;66.00;;;;;;4984702;28;20650;-77
2022/03/30 05:13:17;;;;;;;30.63;16.47;;;10.80;66.10;;;;;;4984529;28;20205;-76
2022/03/30 05:15:45;;;;;;;27.67;15.50;;;10.90;66.20;;;;;;4985910;28;20208;-77
2022/03/30 05:18:15;;;;;;;29.50;15.43;;;10.90;66.30;;;;;;4985901;28;20574;-77
2022/03/30 05:20:44;;;;;;;33.03;16.20;;;10.90;66.20;;;;;;4987004;28;20224;-76
2022/03/30 05:23:12;;;;;;;29.97;15.90;;;11.00;66.10;;;;;;4985433;28;20205;-75
2022/03/30 05:25:41;;;;;;;33.73;15.30;;;11.00;66.20;;;;;;4985980;28;20358;-76
2022/03/30 05:28:10;;;;;;;28.27;16.73;;;11.10;66.10;;;;;;4985604;28;20712;-74
2022/03/30 05:30:39;;;;;;;31.10;15.00;;;11.10;66.10;;;;;;4986903;28;20283;-76
2022/03/30 05:33:07;;;;;;;32.47;15.50;;;11.20;66.10;;;;;;4987565;28;20197;-76
2022/03/30 05:35:38;;;;;;;30.00;15.63;;;11.20;66.10;;;;;;4985262;28;20209;-76
2022/03/30 05:38:06;;;;;;;26.23;15.67;;;11.30;66.10;;;;;;4985149;28;20217;-75
2022/03/30 05:40:35;;;;;;;26.43;15.23;;;11.40;66.10;;;;;;4983825;28;20209;-75
2022/03/30 05:43:04;;;;;;;31.80;15.80;;;11.40;65.90;;;;;;4985171;28;20880;-75
2022/03/30 05:45:33;;;;;;;33.23;16.00;;;11.50;66.10;;;;;;4984733;28;20193;-76
2022/03/30 05:48:01;;;;;;;30.37;15.93;;;11.60;65.90;;;;;;4986080;28;20753;-77
2022/03/30 05:50:29;;;;;;;31.07;16.57;;;11.60;65.90;;;;;;4986715;28;20251;-77
2022/03/30 05:52:59;;;;;;;34.97;17.30;;;11.70;65.80;;;;;;4987317;28;20196;-76
2022/03/30 05:55:29;;;;;;;35.50;15.90;;;11.80;65.80;;;;;;4988908;28;20207;-76
2022/03/30 05:57:57;;;;;;;30.23;15.33;;;11.90;65.70;;;;;;4987326;28;20197;-76
2022/03/30 06:00:28;;;;;;;33.07;15.90;;;12.00;65.70;;;;;;4991251;28;20212;-78
2022/03/30 06:02:57;;;;;;;31.43;16.13;;;12.10;65.40;;;;;;4990672;28;20193;-76
2022/03/30 06:05:26;;;;;;;30.13;16.40;;;12.20;65.30;;;;;;5000676;28;20205;-76
2022/03/30 06:07:57;;;;;;;29.07;15.50;;;12.30;65.20;;;;;;4989721;28;20211;-75
2022/03/30 06:10:27;;;;;;;35.97;16.73;;;12.40;65.20;;;;;;4984578;28;20786;-76
2022/03/30 06:12:56;;;;;;;32.00;16.53;;;12.50;64.80;;;;;;4987027;28;20284;-76
2022/03/30 06:15:26;;;;;;;33.00;16.13;;;12.60;64.60;;;;;;4987180;28;20201;-76
2022/03/30 06:17:56;;;;;;;41.37;16.87;;;12.70;64.30;;;;;;4987962;28;20203;-77
2022/03/30 06:20:25;;;;;;;30.93;16.27;;;12.80;63.90;;;;;;4991866;28;20240;-77
2022/03/30 06:22:54;;;;;;;30.43;15.27;;;12.90;63.90;;;;;;4992203;28;20324;-77
2022/03/30 06:25:24;;;;;;;33.97;16.63;;;13.00;63.60;;;;;;4988464;28;20200;-78
2022/03/30 06:27:54;;;;;;;28.00;17.03;;;13.10;63.10;;;;;;4987785;28;20206;-78
2022/03/30 06:30:23;;;;;;;27.17;15.50;;;13.20;62.70;;;;;;4990832;28;20203;-77
2022/03/30 06:32:52;;;;;;;30.90;17.23;;;13.30;62.50;;;;;;4990102;28;20300;-77
2022/03/30 06:35:21;;;;;;;32.93;16.57;;;13.50;62.30;;;;;;4989173;28;20224;-78
2022/03/30 06:37:50;;;;;;;29.73;15.70;;;13.60;62.00;;;;;;4988000;28;20201;-77
2022/03/30 06:40:18;;;;;;;34.93;17.00;;;13.70;61.80;;;;;;4989248;28;20259;-77
2022/03/30 06:42:48;;;;;;;34.80;16.70;;;13.80;61.40;;;;;;4988071;28;20235;-77
2022/03/30 06:45:18;;;;;;;29.37;17.00;;;13.90;60.90;;;;;;4988868;28;20841;-76
2022/03/30 06:47:46;;;;;;;33.27;17.73;;;14.00;61.00;;;;;;4988971;28;20513;-78
2022/03/30 06:50:14;;;;;;;30.80;17.50;;;14.10;60.70;;;;;;4988686;28;20886;-79
2022/03/30 06:52:43;;;;;;;31.97;16.83;;;14.30;60.50;;;;;;4986044;28;20203;-78
2022/03/30 06:55:12;;;;;;;32.33;16.50;;;14.30;59.90;;;;;;4989542;28;20926;-76
2022/03/30 06:57:42;;;;;;;26.50;15.83;;;14.40;59.60;;;;;;4990077;28;20211;-78
2022/03/30 07:00:15;;;;;;;31.67;15.77;;;14.50;59.50;;;;;;4989661;28;20205;-78
2022/03/30 07:02:45;;;;;;;27.60;16.43;;;14.60;59.30;;;;;;4986735;28;20212;-76
2022/03/30 07:05:14;;;;;;;29.20;15.40;;;14.80;59.50;;;;;;4986159;28;20200;-79
2022/03/30 07:10:28;;;;;;;29.93;16.37;;;14.90;59.00;;;;;;4988550;28;20235;-77
2022/03/30 07:12:56;;;;;;;31.27;16.93;;;14.90;58.50;;;;;;4988466;28;20196;-77
2022/03/30 07:15:28;;;;;;;28.00;15.67;;;15.00;58.50;;;;;;4985345;28;20258;-77
2022/03/30 07:17:59;;;;;;;25.93;14.73;;;15.10;58.40;;;;;;4988723;28;20619;-77
2022/03/30 07:20:31;;;;;;;32.53;15.93;;;15.20;58.40;;;;;;4987130;28;20220;-76
2022/03/30 07:23:00;;;;;;;31.47;15.67;;;15.30;58.20;;;;;;4986511;28;20230;-76
2022/03/30 07:25:30;;;;;;;31.77;15.17;;;15.40;57.70;;;;;;4985440;28;20888;-76
2022/03/30 07:28:02;;;;;;;35.13;16.30;;;15.50;57.80;;;;;;4987404;28;20608;-77
2022/03/30 07:30:32;;;;;;;33.47;15.67;;;15.60;57.70;;;;;;4987381;28;20197;-77
2022/03/30 07:33:02;;;;;;;32.20;15.10;;;15.70;57.50;;;;;;4984848;28;21215;-77
2022/03/30 07:35:32;;;;;;;32.40;15.50;;;15.80;57.60;;;;;;4986952;28;20645;-77
2022/03/30 07:38:02;;;;;;;24.87;14.67;;;15.90;57.30;;;;;;4985613;28;20304;-76
2022/03/30 07:40:31;;;;;;;28.20;14.23;;;16.00;57.20;;;;;;4983959;28;20303;-76
2022/03/30 07:43:00;;;;;;;33.47;14.90;;;16.10;57.10;;;;;;4986584;28;20196;-77
2022/03/30 07:45:28;;;;;;;27.27;14.97;;;16.20;56.60;;;;;;4987931;28;20205;-76
2022/03/30 07:47:57;;;;;;;24.20;13.27;;;16.30;56.70;;;;;;4987227;28;20200;-76
2022/03/30 07:50:28;;;;;;;28.13;13.50;;;16.40;56.40;;;;;;4986752;28;20648;-78
2022/03/30 07:52:56;;;;;;;25.90;13.80;;;16.50;56.00;;;;;;4987694;28;20200;-76
2022/03/30 07:55:26;;;;;;;23.50;12.77;;;16.60;56.10;;;;;;4985468;28;20200;-76
2022/03/30 07:57:55;;;;;;;27.83;14.10;;;16.70;56.00;;;;;;4987926;28;20197;-77
2022/03/30 08:00:24;;;;;;;34.43;14.40;;;16.80;55.50;;;;;;4986968;28;20228;-77
2022/03/30 08:02:52;;;;;;;21.93;12.93;;;16.90;55.50;;;;;;4987845;28;20323;-76
2022/03/30 08:05:21;;;;;;;26.77;14.03;;;17.00;55.40;;;;;;4985479;28;20197;-77
2022/03/30 08:07:51;;;;;;;25.63;14.20;;;17.10;55.40;;;;;;4987074;28;20779;-76
2022/03/30 08:10:20;;;;;;;25.97;13.23;;;17.20;55.10;;;;;;4985032;28;20212;-78
2022/03/30 08:12:48;;;;;;;28.97;14.27;;;17.40;55.00;;;;;;4987352;28;20232;-77
2022/03/30 08:15:18;;;;;;;25.57;13.53;;;17.50;55.00;;;;;;4985018;28;20698;-77
2022/03/30 08:17:46;;;;;;;22.93;12.20;;;17.70;54.90;;;;;;4985734;28;20934;-77
2022/03/30 08:22:25;;;;;;;33.07;13.23;;;17.80;54.00;;;;;;4987666;28;20220;-77
2022/03/30 08:23:03;;;;;;;21.63;12.27;;;17.90;53.90;;;;;;4985900;28;20854;-77
2022/03/30 08:25:33;;;;;;;24.90;12.30;;;18.10;53.90;;;;;;4985101;28;20209;-77
2022/03/30 08:28:02;;;;;;;26.77;12.13;;;18.20;53.00;;;;;;4985355;28;20242;-77
2022/03/30 08:30:31;;;;;;;20.37;11.40;;;18.40;53.50;;;;;;4984286;28;20200;-76
2022/03/30 08:33:01;;;;;;;27.57;10.87;;;18.50;52.80;;;;;;4985536;28;20204;-77
2022/03/30 08:35:30;;;;;;;25.63;12.40;;;18.60;52.60;;;;;;4983461;28;20592;-74
2022/03/30 08:37:59;;;;;;;29.57;12.13;;;18.70;51.80;;;;;;4985176;28;20197;-76
2022/03/30 08:40:29;;;;;;;26.40;12.60;;;18.80;51.50;;;;;;4985049;28;20232;-75
2022/03/30 08:42:57;;;;;;;22.67;12.53;;;18.90;51.10;;;;;;4985159;28;20717;-75
2022/03/30 08:45:26;;;;;;;29.80;13.10;;;19.00;50.90;;;;;;4983916;28;20850;-75
2022/03/30 08:47:54;;;;;;;27.23;12.43;;;19.10;50.50;;;;;;4983113;28;20203;-76
2022/03/30 08:50:23;;;;;;;22.00;12.80;;;19.20;50.10;;;;;;4984300;28;20201;-77
2022/03/30 08:52:55;;;;;;;20.83;11.90;;;19.40;50.40;;;;;;4984682;28;20200;-75
2022/03/30 08:55:24;;;;;;;25.03;12.30;;;19.50;50.30;;;;;;4984702;28;21008;-76
2022/03/30 08:57:54;;;;;;;23.87;11.93;;;19.60;50.10;;;;;;4986540;28;20912;-75
2022/03/30 09:00:23;;;;;;;26.13;12.70;;;19.70;49.60;;;;;;4984970;28;20220;-75
2022/03/30 09:03:00;;;;;;;22.13;11.87;;;19.80;49.50;;;;;;4984935;28;20274;-75
2022/03/30 09:05:31;;;;;;;21.77;11.67;;;19.90;49.10;;;;;;4983618;28;20200;-76
2022/03/30 09:08:10;;;;;;;23.37;11.83;;;20.00;49.00;;;;;;4984084;28;20838;-77
2022/03/30 09:10:40;;;;;;;26.20;12.17;;;20.10;48.70;;;;;;4986624;28;20343;-73
2022/03/30 09:13:11;;;;;;;24.67;12.03;;;20.20;48.70;;;;;;4984703;28;21818;-77
2022/03/30 09:15:40;;;;;;;19.00;11.73;;;20.30;47.80;;;;;;4985735;28;20196;-77
2022/03/30 09:18:10;;;;;;;26.93;12.40;;;20.40;47.90;;;;;;4985162;28;20200;-77
2022/03/30 09:20:40;;;;;;;19.63;11.07;;;20.50;47.60;;;;;;4983805;28;20753;-76
2022/03/30 09:23:10;;;;;;;21.13;11.67;;;20.50;47.30;;;;;;4984953;28;20307;-77
2022/03/30 09:25:47;;;;;;;24.07;12.33;;;20.70;47.70;;;;;;4985044;28;20193;-75
2022/03/30 09:28:18;;;;;;;25.50;11.33;;;20.70;46.70;;;;;;4985323;28;20740;-74
2022/03/30 09:30:47;;;;;;;26.40;10.50;;;20.80;46.30;;;;;;4986238;28;20917;-78
2022/03/30 09:33:18;;;;;;;28.40;11.67;;;20.80;46.00;;;;;;4984282;28;20255;-76
2022/03/30 09:35:47;;;;;;;23.13;11.30;;;20.90;46.00;;;;;;4984795;28;20236;-75
2022/03/30 09:38:17;;;;;;;18.67;10.80;;;21.00;45.80;;;;;;4986119;28;20308;-76
2022/03/30 09:40:48;;;;;;;20.67;10.33;;;21.10;45.40;;;;;;4985535;28;20216;-77
2022/03/30 09:43:21;;;;;;;22.50;11.40;;;21.10;45.40;;;;;;4986811;28;20201;-75
2022/03/30 09:45:52;;;;;;;22.92;11.90;;;21.20;45.20;;;;;;4985307;28;20452;-75
2022/03/30 09:48:22;;;;;;;20.58;11.13;;;21.40;45.30;;;;;;4988184;28;20235;-78
2022/03/30 09:50:53;;;;;;;17.20;10.03;;;21.40;45.40;;;;;;4988015;28;20189;-77
2022/03/30 09:53:23;;;;;;;20.25;10.43;;;21.50;44.70;;;;;;4992453;28;20212;-77
2022/03/30 09:56:02;;;;;;;22.80;10.77;;;21.60;44.50;;;;;;4990482;28;20189;-80
2022/03/30 09:58:34;;;;;;;15.35;9.90;;;21.60;44.00;;;;;;4990445;28;20200;-76
2022/03/30 10:01:19;;;;;;;21.83;9.93;;;21.70;44.00;;;;;;4990041;28;20379;-77
2022/03/30 10:03:50;;;;;;;20.55;10.60;;;21.80;43.10;;;;;;4991576;28;20287;-78
2022/03/30 10:06:21;;;;;;;21.93;10.27;;;21.90;43.60;;;;;;4991296;28;20287;-76
2022/03/30 10:08:52;;;;;;;17.37;10.60;;;22.00;43.50;;;;;;4991780;28;20649;-75
2022/03/30 10:11:21;;;;;;;22.63;10.23;;;22.00;44.00;;;;;;4988933;28;20197;-75
2022/03/30 10:13:54;;;;;;;29.70;11.05;;;22.10;44.20;;;;;;4990274;28;20663;-75
2022/03/30 10:16:39;;;;;;;21.53;10.47;;;22.20;43.70;;;;;;4988596;28;20227;-78
2022/03/30 10:19:08;;;;;;;22.08;10.50;;;22.30;43.40;;;;;;4988827;28;20296;-74
2022/03/30 10:21:49;;;;;;;73.15;13.35;;;22.30;43.00;;;;;;4990654;28;20263;-77
2022/03/30 10:24:39;;;;;;;22.13;10.18;;;22.40;43.10;;;;;;4990826;28;20204;-77
2022/03/30 10:27:13;;;;;;;20.85;10.80;;;22.40;43.10;;;;;;4990895;28;20208;-78
2022/03/30 10:29:52;;;;;;;19.17;10.45;;;22.50;42.80;;;;;;4989307;28;20553;-75
2022/03/30 10:32:22;;;;;;;17.92;9.73;;;22.60;43.10;;;;;;4993304;28;20663;-77
2022/03/30 10:35:01;;;;;;;20.60;10.45;;;22.60;43.00;;;;;;4992501;28;20193;-77
2022/03/30 10:37:33;;;;;;;20.58;11.35;;;22.70;42.70;;;;;;4993468;28;20200;-76
2022/03/30 10:40:19;;;;;;;23.95;10.48;;;22.70;42.40;;;;;;4989895;28;20594;-76
2022/03/30 10:43:02;;;;;;;17.55;10.68;;;22.90;42.70;;;;;;4990537;28;20201;-74
2022/03/30 10:45:42;;;;;;;21.88;11.20;;;22.90;42.50;;;;;;4990050;28;20220;-78
2022/03/30 10:48:13;;;;;;;22.75;10.48;;;23.10;42.60;;;;;;4990091;28;20200;-76
2022/03/30 10:50:45;;;;;;;34.45;10.98;;;23.20;41.60;;;;;;4990589;28;20741;-77
2022/03/30 10:53:39;;;;;;;19.00;9.85;;;23.30;42.10;;;;;;4990297;28;20209;-78
2022/03/30 10:56:31;;;;;;;21.92;10.23;;;23.50;42.30;;;;;;4990209;28;20292;-77
2022/03/30 10:59:13;;;;;;;22.27;11.07;;;23.50;41.50;;;;;;4989643;28;20197;-75
2022/03/30 11:01:44;;;;;;;20.20;10.52;;;23.60;41.40;;;;;;4988867;28;20248;-77
2022/03/30 11:04:19;;;;;;;22.80;11.98;;;23.60;41.00;;;;;;4988072;28;20185;-77
2022/03/30 11:07:07;;;;;;;21.95;11.43;;;23.60;40.60;;;;;;4989376;28;20223;-76
2022/03/30 11:09:36;;;;;;;20.55;11.38;;;23.60;40.30;;;;;;4989826;28;20280;-77
2022/03/30 11:12:12;;;;;;;19.85;11.95;;;23.60;40.20;;;;;;4988975;28;20201;-74
2022/03/30 11:14:43;;;;;;;21.73;11.90;;;23.70;40.00;;;;;;4989371;28;20193;-75
2022/03/30 11:17:16;;;;;;;23.98;11.98;;;23.70;40.30;;;;;;4990066;28;20192;-74
2022/03/30 11:20:10;;;;;;;21.67;11.80;;;23.80;40.60;;;;;;4990174;28;20224;-72
2022/03/30 11:22:42;;;;;;;22.75;11.48;;;23.90;39.70;;;;;;4973569;28;20232;-73
2022/03/30 11:25:13;;;;;;;23.17;11.80;;;24.00;40.30;;;;;;4986762;28;20223;-74
2022/03/30 11:27:43;;;;;;;27.50;12.15;;;24.10;40.30;;;;;;4984692;28;20348;-74
2022/03/30 11:30:14;;;;;;;22.73;13.07;;;24.20;40.40;;;;;;4988146;28;20204;-76
2022/03/30 11:32:57;;;;;;;23.98;13.05;;;24.30;40.00;;;;;;4988032;28;20231;-73
2022/03/30 11:35:28;;;;;;;22.13;13.02;;;24.40;39.90;;;;;;4987889;28;20197;-75
2022/03/30 11:38:07;;;;;;;28.58;13.25;;;24.30;39.90;;;;;;4988075;28;20296;-75
2022/03/30 11:40:41;;;;;;;23.98;13.45;;;24.40;39.90;;;;;;4987482;28;20197;-73
2022/03/30 11:43:11;;;;;;;25.60;13.55;;;24.40;40.00;;;;;;4990847;28;20202;-74
2022/03/30 11:45:59;;;;;;;25.90;14.05;;;24.40;39.90;;;;;;4989942;28;20196;-73
2022/03/30 11:48:36;;;;;;;25.15;15.27;;;24.30;39.90;;;;;;4988504;28;20211;-73
2022/03/30 11:51:07;;;;;;;29.75;14.98;;;24.30;40.00;;;;;;4990271;28;20224;-74
2022/03/30 11:53:37;;;;;;;26.48;14.52;;;24.30;39.60;;;;;;4987173;28;20200;-73
2022/03/30 11:56:10;;;;;;;22.30;13.45;;;24.30;39.80;;;;;;4987895;28;20287;-74
2022/03/30 11:58:42;;;;;;;23.65;13.90;;;24.40;40.20;;;;;;4985300;28;20200;-73
2022/03/30 12:01:13;;;;;;;26.27;14.57;;;24.50;39.80;;;;;;4989447;28;20189;-74
2022/03/30 12:03:44;;;;;;;21.67;13.82;;;24.70;40.00;;;;;;4988254;28;20288;-74
2022/03/30 12:06:14;;;;;;;27.98;14.35;;;24.70;39.90;;;;;;4987006;28;20200;-72
2022/03/30 12:08:44;;;;;;;28.58;14.60;;;24.70;38.50;;;;;;4986932;28;20220;-74
2022/03/30 12:11:13;;;;;;;30.88;14.13;;;24.70;38.20;;;;;;4987082;28;20242;-75
2022/03/30 12:13:42;;;;;;;19.45;13.23;;;24.80;37.70;;;;;;4987955;28;20201;-75
2022/03/30 12:16:12;;;;;;;30.27;13.95;;;24.70;37.80;;;;;;4986650;28;20236;-75
2022/03/30 12:18:46;;;;;;;23.20;13.07;;;24.70;38.40;;;;;;4987649;28;20200;-75
2022/03/30 12:21:18;;;;;;;23.95;12.82;;;24.80;38.60;;;;;;4989055;28;20239;-76
2022/03/30 12:24:11;;;;;;;26.40;12.73;;;24.90;38.50;;;;;;4987688;28;20280;-76
2022/03/30 12:26:50;;;;;;;24.58;13.27;;;25.10;38.30;;;;;;4988230;28;20201;-76
2022/03/30 12:29:19;;;;;;;23.65;13.25;;;25.20;37.40;;;;;;4987099;28;20735;-75
2022/03/30 12:31:53;;;;;;;21.65;13.15;;;25.30;37.30;;;;;;4987626;28;20189;-76
2022/03/30 12:34:31;;;;;;;26.50;13.00;;;25.40;36.50;;;;;;4988371;28;20196;-76
2022/03/30 12:37:02;;;;;;;24.40;12.98;;;25.40;36.40;;;;;;4988470;28;20201;-76
2022/03/30 12:39:38;;;;;;;25.08;12.40;;;25.40;35.30;;;;;;4990144;28;20208;-75
2022/03/30 12:42:08;;;;;;;26.75;13.13;;;25.40;35.70;;;;;;4986444;28;20211;-75
2022/03/30 12:44:38;;;;;;;25.05;12.73;;;25.40;35.40;;;;;;4986178;28;20199;-75
2022/03/30 12:47:27;;;;;;;23.77;12.10;;;25.40;35.20;;;;;;4987551;28;20197;-76
2022/03/30 12:49:58;;;;;;;21.95;12.82;;;25.40;35.90;;;;;;4986842;28;20683;-76
2022/03/30 12:52:32;;;;;;;22.58;13.15;;;25.40;35.20;;;;;;4987399;28;20204;-76